Terminal Aerodrome Forecast
Issued by NWS Portland, OR

Home | Current Version | Previous Version | Text Only | Print | Product List | Glossary On
Versions: 1 2 3 4 5 6 7 8 9 10 11 12 13 14 15 16 17 18 19 20 21 22 23
000
FTUS46 KPQR 161341 AAA
TAFHIO
TAF AMD
KHIO 161341Z 1614/1712 12005KT 4SM BR SCT035 OVC050
      TEMPO 1614/1616 3SM -RA BR BKN035 OVC050
     FM161700 18007KT P6SM SCT070
     FM170200 10005KT P6SM BKN250
     FM170900 10009KT P6SM -RA SCT050 OVC080=

USA.gov is the U.S. government's official web portal to all federal, state and local government web resources and services.